sensor_id;sensor_type;location;lat;lon;timestamp;pressure;altitude;pressure_sealevel;temperature;humidity
21588;BME280;10956;48.878;13.316;2022-07-12T00:01:25;94780.75;;;14.58;100.00
21588;BME280;10956;48.878;13.316;2022-07-12T00:03:50;94782.34;;;14.59;100.00
21588;BME280;10956;48.878;13.316;2022-07-12T00:06:17;94775.19;;;14.59;100.00
21588;BME280;10956;48.878;13.316;2022-07-12T00:08:42;94778.16;;;14.52;100.00
21588;BME280;10956;48.878;13.316;2022-07-12T00:11:08;94778.44;;;14.46;100.00
21588;BME280;10956;48.878;13.316;2022-07-12T00:13:34;94779.22;;;14.51;100.00
21588;BME280;10956;48.878;13.316;2022-07-12T00:15:59;94774.97;;;14.50;100.00
21588;BME280;10956;48.878;13.316;2022-07-12T00:18:25;94778.94;;;14.53;100.00
21588;BME280;10956;48.878;13.316;2022-07-12T00:20:50;94770.47;;;14.51;100.00
21588;BME280;10956;48.878;13.316;2022-07-12T00:23:16;94777.59;;;14.56;100.00
21588;BME280;10956;48.878;13.316;2022-07-12T00:25:42;94771.50;;;14.55;100.00
21588;BME280;10956;48.878;13.316;2022-07-12T00:28:08;94772.81;;;14.58;100.00
21588;BME280;10956;48.878;13.316;2022-07-12T00:30:33;94783.41;;;14.58;100.00
21588;BME280;10956;48.878;13.316;2022-07-12T00:32:59;94776.50;;;14.62;100.00
21588;BME280;10956;48.878;13.316;2022-07-12T00:35:24;94785.50;;;14.61;100.00
21588;BME280;10956;48.878;13.316;2022-07-12T00:37:50;94777.59;;;14.56;100.00
21588;BME280;10956;48.878;13.316;2022-07-12T00:40:16;94779.72;;;14.53;100.00
21588;BME280;10956;48.878;13.316;2022-07-12T00:42:41;94770.69;;;14.54;100.00
21588;BME280;10956;48.878;13.316;2022-07-12T00:45:07;94770.69;;;14.54;100.00
21588;BME280;10956;48.878;13.316;2022-07-12T00:47:44;94774.69;;;14.52;100.00
21588;BME280;10956;48.878;13.316;2022-07-12T00:50:18;94775.72;;;14.56;100.00
21588;BME280;10956;48.878;13.316;2022-07-12T00:52:47;94777.59;;;14.56;100.00
21588;BME280;10956;48.878;13.316;2022-07-12T00:55:13;94776.56;;;14.51;100.00
21588;BME280;10956;48.878;13.316;2022-07-12T00:57:39;94777.34;;;14.52;100.00
21588;BME280;10956;48.878;13.316;2022-07-12T01:00:08;94778.16;;;14.52;100.00
21588;BME280;10956;48.878;13.316;2022-07-12T01:02:35;94780.28;;;14.50;100.00
21588;BME280;10956;48.878;13.316;2022-07-12T01:05:03;94776.28;;;14.53;100.00
21588;BME280;10956;48.878;13.316;2022-07-12T01:07:29;94778.16;;;14.52;100.00
21588;BME280;10956;48.878;13.316;2022-07-12T01:09:55;94776.56;;;14.51;100.00
21588;BME280;10956;48.878;13.316;2022-07-12T01:12:24;94778.16;;;14.52;100.00
21588;BME280;10956;48.878;13.316;2022-07-12T01:14:50;94771.25;;;14.51;100.00
21588;BME280;10956;48.878;13.316;2022-07-12T01:17:19;94773.63;;;14.53;100.00
21588;BME280;10956;48.878;13.316;2022-07-12T01:19:45;94770.69;;;14.54;100.00
21588;BME280;10956;48.878;13.316;2022-07-12T01:22:14;94769.66;;;14.50;100.00
21588;BME280;10956;48.878;13.316;2022-07-12T01:24:40;94771.25;;;14.51;100.00
21588;BME280;10956;48.878;13.316;2022-07-12T01:27:07;94767.53;;;14.52;100.00
21588;BME280;10956;48.878;13.316;2022-07-12T01:29:32;94767.53;;;14.52;100.00
21588;BME280;10956;48.878;13.316;2022-07-12T01:32:02;94768.09;;;14.49;100.00
21588;BME280;10956;48.878;13.316;2022-07-12T01:34:48;94768.88;;;14.50;100.00
21588;BME280;10956;48.878;13.316;2022-07-12T01:37:14;94767.03;;;14.50;100.00
21588;BME280;10956;48.878;13.316;2022-07-12T01:39:41;94761.72;;;14.50;100.00
21588;BME280;10956;48.878;13.316;2022-07-12T01:42:06;94764.88;;;14.52;100.00
21588;BME280;10956;48.878;13.316;2022-07-12T01:44:32;94758.53;;;14.48;100.00
21588;BME280;10956;48.878;13.316;2022-07-12T01:46:58;94756.44;;;14.45;100.00
21588;BME280;10956;48.878;13.316;2022-07-12T01:49:23;94753.75;;;14.50;100.00
21588;BME280;10956;48.878;13.316;2022-07-12T01:51:49;94746.38;;;14.42;100.00
21588;BME280;10956;48.878;13.316;2022-07-12T01:54:14;94757.00;;;14.42;100.00
21588;BME280;10956;48.878;13.316;2022-07-12T01:56:40;94751.97;;;14.36;100.00
21588;BME280;10956;48.878;13.316;2022-07-12T01:59:05;94753.88;;;14.30;100.00
21588;BME280;10956;48.878;13.316;2022-07-12T02:01:32;94761.31;;;14.28;100.00
21588;BME280;10956;48.878;13.316;2022-07-12T02:04:02;94763.19;;;14.22;100.00
21588;BME280;10956;48.878;13.316;2022-07-12T02:06:28;94755.25;;;14.22;100.00
21588;BME280;10956;48.878;13.316;2022-07-12T02:08:54;94754.41;;;14.27;100.00
21588;BME280;10956;48.878;13.316;2022-07-12T02:11:19;94753.34;;;14.28;99.80
21588;BME280;10956;48.878;13.316;2022-07-12T02:13:44;94753.66;;;14.21;99.57
21588;BME280;10956;48.878;13.316;2022-07-12T02:16:10;94754.97;;;14.24;99.23
21588;BME280;10956;48.878;13.316;2022-07-12T02:18:35;94758.16;;;14.21;99.35
21588;BME280;10956;48.878;13.316;2022-07-12T02:21:01;94753.94;;;14.20;99.14
21588;BME280;10956;48.878;13.316;2022-07-12T02:23:27;94756.84;;;14.18;98.52
21588;BME280;10956;48.878;13.316;2022-07-12T02:25:52;94764.53;;;14.20;98.55
21588;BME280;10956;48.878;13.316;2022-07-12T02:28:17;94763.72;;;14.19;98.84
21588;BME280;10956;48.878;13.316;2022-07-12T02:30:43;94767.69;;;14.22;98.80
21588;BME280;10956;48.878;13.316;2022-07-12T02:33:08;94766.13;;;14.21;99.39
21588;BME280;10956;48.878;13.316;2022-07-12T02:35:34;94770.06;;;14.23;100.00
21588;BME280;10956;48.878;13.316;2022-07-12T02:37:59;94770.06;;;14.23;99.60
21588;BME280;10956;48.878;13.316;2022-07-12T02:40:24;94767.69;;;14.22;98.93
21588;BME280;10956;48.878;13.316;2022-07-12T02:43:08;94768.72;;;14.26;98.03
21588;BME280;10956;48.878;13.316;2022-07-12T02:45:34;94772.44;;;14.25;98.27
21588;BME280;10956;48.878;13.316;2022-07-12T02:47:59;94772.44;;;14.25;98.40
21588;BME280;10956;48.878;13.316;2022-07-12T02:50:24;94763.19;;;14.22;98.61
21588;BME280;10956;48.878;13.316;2022-07-12T02:52:50;94771.66;;;14.25;99.11
21588;BME280;10956;48.878;13.316;2022-07-12T02:55:15;94774.59;;;14.23;99.64
21588;BME280;10956;48.878;13.316;2022-07-12T02:57:41;94769.84;;;14.20;99.63
21588;BME280;10956;48.878;13.316;2022-07-12T03:00:07;94774.84;;;14.27;99.05
21588;BME280;10956;48.878;13.316;2022-07-12T03:02:32;94777.25;;;14.18;99.91
21588;BME280;10956;48.878;13.316;2022-07-12T03:04:58;94776.22;;;14.14;100.00
21588;BME280;10956;48.878;13.316;2022-07-12T03:07:23;94775.72;;;14.07;100.00
21588;BME280;10956;48.878;13.316;2022-07-12T03:09:49;94773.88;;;14.07;99.99
21588;BME280;10956;48.878;13.316;2022-07-12T03:12:14;94783.69;;;14.07;99.89
21588;BME280;10956;48.878;13.316;2022-07-12T03:14:39;94786.63;;;14.00;100.00
21588;BME280;10956;48.878;13.316;2022-07-12T03:17:05;94781.63;;;13.94;100.00
21588;BME280;10956;48.878;13.316;2022-07-12T03:19:30;94785.34;;;13.93;100.00
21588;BME280;10956;48.878;13.316;2022-07-12T03:21:56;94788.81;;;13.88;100.00
21588;BME280;10956;48.878;13.316;2022-07-12T03:24:21;94788.81;;;13.88;100.00
21588;BME280;10956;48.878;13.316;2022-07-12T03:26:46;94790.63;;;13.93;100.00
21588;BME280;10956;48.878;13.316;2022-07-12T03:29:12;94796.97;;;13.97;99.97
21588;BME280;10956;48.878;13.316;2022-07-12T03:31:37;94798.06;;;13.90;100.00
21588;BME280;10956;48.878;13.316;2022-07-12T03:34:03;94795.41;;;13.96;100.00
21588;BME280;10956;48.878;13.316;2022-07-12T03:36:28;94798.56;;;13.98;99.68
21588;BME280;10956;48.878;13.316;2022-07-12T03:38:54;94806.50;;;14.03;98.56
21588;BME280;10956;48.878;13.316;2022-07-12T03:41:19;94802.81;;;13.99;98.39
21588;BME280;10956;48.878;13.316;2022-07-12T03:43:44;94813.16;;;13.90;98.84
21588;BME280;10956;48.878;13.316;2022-07-12T03:46:10;94802.81;;;13.94;98.41
21588;BME280;10956;48.878;13.316;2022-07-12T03:48:35;94813.97;;;13.90;97.95
21588;BME280;10956;48.878;13.316;2022-07-12T03:51:01;94804.41;;;13.95;97.87
21588;BME280;10956;48.878;13.316;2022-07-12T03:53:26;94811.84;;;13.93;98.06
21588;BME280;10956;48.878;13.316;2022-07-12T03:55:52;94809.16;;;13.98;97.69
21588;BME280;10956;48.878;13.316;2022-07-12T03:58:17;94802.78;;;14.04;96.53
21588;BME280;10956;48.878;13.316;2022-07-12T04:00:43;94804.91;;;14.02;95.98
21588;BME280;10956;48.878;13.316;2022-07-12T04:03:10;94807.78;;;14.10;94.31
21588;BME280;10956;48.878;13.316;2022-07-12T04:05:36;94807.25;;;14.13;93.23
21588;BME280;10956;48.878;13.316;2022-07-12T04:08:02;94817.03;;;14.13;93.04
21588;BME280;10956;48.878;13.316;2022-07-12T04:10:28;94807.47;;;14.17;92.47
21588;BME280;10956;48.878;13.316;2022-07-12T04:12:53;94812.50;;;14.23;92.21
21588;BME280;10956;48.878;13.316;2022-07-12T04:15:19;94806.91;;;14.25;92.66
21588;BME280;10956;48.878;13.316;2022-07-12T04:17:44;94812.19;;;14.30;92.98
21588;BME280;10956;48.878;13.316;2022-07-12T04:20:10;94817.19;;;14.37;93.53
21588;BME280;10956;48.878;13.316;2022-07-12T04:22:35;94824.88;;;14.38;94.29
21588;BME280;10956;48.878;13.316;2022-07-12T04:25:01;94819.59;;;14.33;95.26
21588;BME280;10956;48.878;13.316;2022-07-12T04:27:26;94822.78;;;14.35;95.08
21588;BME280;10956;48.878;13.316;2022-07-12T04:29:52;94817.97;;;14.42;95.02
21588;BME280;10956;48.878;13.316;2022-07-12T04:32:18;94814.72;;;14.56;94.71
21588;BME280;10956;48.878;13.316;2022-07-12T04:34:43;94817.31;;;14.66;94.14
21588;BME280;10956;48.878;13.316;2022-07-12T04:37:09;94815.13;;;14.73;93.73
21588;BME280;10956;48.878;13.316;2022-07-12T04:39:35;94822.75;;;14.84;93.43
21588;BME280;10956;48.878;13.316;2022-07-12T04:42:00;94820.84;;;14.90;93.47
21588;BME280;10956;48.878;13.316;2022-07-12T04:44:26;94815.00;;;14.93;93.31
21588;BME280;10956;48.878;13.316;2022-07-12T04:46:51;94822.41;;;14.96;92.24
21588;BME280;10956;48.878;13.316;2022-07-12T04:49:16;94829.25;;;15.02;91.64
21588;BME280;10956;48.878;13.316;2022-07-12T04:51:42;94832.91;;;15.11;90.80
21588;BME280;10956;48.878;13.316;2022-07-12T04:54:07;94825.91;;;15.21;90.17
21588;BME280;10956;48.878;13.316;2022-07-12T04:56:33;94824.84;;;15.22;89.81
21588;BME280;10956;48.878;13.316;2022-07-12T04:58:58;94822.66;;;15.29;89.46
21588;BME280;10956;48.878;13.316;2022-07-12T05:01:23;94825.97;;;15.44;89.07
21588;BME280;10956;48.878;13.316;2022-07-12T05:03:50;94826.66;;;15.55;88.60
21588;BME280;10956;48.878;13.316;2022-07-12T05:06:16;94820.81;;;15.58;88.33
21588;BME280;10956;48.878;13.316;2022-07-12T05:08:41;94825.78;;;15.65;87.44
21588;BME280;10956;48.878;13.316;2022-07-12T05:11:06;94839.03;;;15.70;87.59
21588;BME280;10956;48.878;13.316;2022-07-12T05:13:32;94831.78;;;15.75;87.39
21588;BME280;10956;48.878;13.316;2022-07-12T05:15:57;94838.63;;;15.81;87.18
21588;BME280;10956;48.878;13.316;2022-07-12T05:18:23;94837.50;;;15.88;86.82
21588;BME280;10956;48.878;13.316;2022-07-12T05:20:48;94827.25;;;16.00;86.78
21588;BME280;10956;48.878;13.316;2022-07-12T05:23:14;94828.59;;;16.21;86.69
21588;BME280;10956;48.878;13.316;2022-07-12T05:25:39;94835.69;;;16.50;86.10
21588;BME280;10956;48.878;13.316;2022-07-12T05:28:05;94823.56;;;16.81;84.85
21588;BME280;10956;48.878;13.316;2022-07-12T05:30:31;94831.66;;;17.08;83.81
21588;BME280;10956;48.878;13.316;2022-07-12T05:32:56;94826.66;;;17.21;83.57
21588;BME280;10956;48.878;13.316;2022-07-12T05:35:21;94838.66;;;17.37;82.83
21588;BME280;10956;48.878;13.316;2022-07-12T05:37:47;94832.47;;;17.55;81.94
21588;BME280;10956;48.878;13.316;2022-07-12T05:40:12;94833.31;;;17.69;80.61
21588;BME280;10956;48.878;13.316;2022-07-12T05:42:38;94838.97;;;17.82;80.25
21588;BME280;10956;48.878;13.316;2022-07-12T05:45:04;94841.34;;;17.97;79.81
21588;BME280;10956;48.878;13.316;2022-07-12T05:47:30;94839.38;;;18.16;79.53
21588;BME280;10956;48.878;13.316;2022-07-12T05:49:55;94846.47;;;18.34;79.19
21588;BME280;10956;48.878;13.316;2022-07-12T05:52:21;94846.03;;;18.55;79.26
21588;BME280;10956;48.878;13.316;2022-07-12T05:55:05;94840.28;;;18.75;78.82
21588;BME280;10956;48.878;13.316;2022-07-12T05:57:31;94841.66;;;18.86;78.91
21588;BME280;10956;48.878;13.316;2022-07-12T05:59:56;94841.41;;;18.96;78.60
21588;BME280;10956;48.878;13.316;2022-07-12T06:02:22;94847.72;;;19.00;78.35
21588;BME280;10956;48.878;13.316;2022-07-12T06:04:48;94840.81;;;18.99;78.63
21588;BME280;10956;48.878;13.316;2022-07-12T06:07:13;94838.50;;;19.07;77.97
21588;BME280;10956;48.878;13.316;2022-07-12T06:09:38;94847.84;;;19.18;76.98
21588;BME280;10956;48.878;13.316;2022-07-12T06:12:04;94847.84;;;19.18;76.50
21588;BME280;10956;48.878;13.316;2022-07-12T06:14:30;94851.63;;;19.17;76.40
21588;BME280;10956;48.878;13.316;2022-07-12T06:16:55;94861.94;;;19.10;76.31
21588;BME280;10956;48.878;13.316;2022-07-12T06:19:21;94857.19;;;19.07;75.84
21588;BME280;10956;48.878;13.316;2022-07-12T06:21:49;94857.69;;;19.09;75.61
21588;BME280;10956;48.878;13.316;2022-07-12T06:24:14;94852.22;;;19.14;75.42
21588;BME280;10956;48.878;13.316;2022-07-12T06:26:39;94858.00;;;19.07;75.60
21588;BME280;10956;48.878;13.316;2022-07-12T06:29:05;94860.22;;;18.91;76.14
21588;BME280;10956;48.878;13.316;2022-07-12T06:31:30;94860.25;;;18.78;76.76
21588;BME280;10956;48.878;13.316;2022-07-12T06:33:56;94860.06;;;18.74;76.74
21588;BME280;10956;48.878;13.316;2022-07-12T06:36:21;94861.44;;;18.85;76.10
21588;BME280;10956;48.878;13.316;2022-07-12T06:38:47;94860.97;;;19.06;75.37
21588;BME280;10956;48.878;13.316;2022-07-12T06:41:12;94867.03;;;19.42;74.60
21588;BME280;10956;48.878;13.316;2022-07-12T06:43:38;94872.06;;;19.88;73.20
21588;BME280;10956;48.878;13.316;2022-07-12T06:46:04;94869.84;;;20.21;72.09
21588;BME280;10956;48.878;13.316;2022-07-12T06:48:29;94875.53;;;20.28;72.29
21588;BME280;10956;48.878;13.316;2022-07-12T06:50:55;94873.94;;;20.27;72.23
21588;BME280;10956;48.878;13.316;2022-07-12T06:53:20;94874.41;;;20.21;71.45
21588;BME280;10956;48.878;13.316;2022-07-12T06:55:46;94868.19;;;20.03;71.87
21588;BME280;10956;48.878;13.316;2022-07-12T06:58:11;94873.50;;;19.94;72.57
21588;BME280;10956;48.878;13.316;2022-07-12T07:00:36;94867.84;;;19.96;72.96
21588;BME280;10956;48.878;13.316;2022-07-12T07:03:05;94868.69;;;20.05;73.08
21588;BME280;10956;48.878;13.316;2022-07-12T07:05:30;94872.31;;;20.09;72.81
21588;BME280;10956;48.878;13.316;2022-07-12T07:07:56;94866.41;;;20.29;72.22
21588;BME280;10956;48.878;13.316;2022-07-12T07:10:21;94869.34;;;20.59;71.49
21588;BME280;10956;48.878;13.316;2022-07-12T07:12:47;94868.91;;;20.83;71.08
21588;BME280;10956;48.878;13.316;2022-07-12T07:15:12;94863.56;;;20.91;70.29
21588;BME280;10956;48.878;13.316;2022-07-12T07:17:41;94873.16;;;20.75;70.43
21588;BME280;10956;48.878;13.316;2022-07-12T07:20:09;94872.78;;;20.51;70.78
21588;BME280;10956;48.878;13.316;2022-07-12T07:22:34;94875.63;;;20.46;70.97
21588;BME280;10956;48.878;13.316;2022-07-12T07:25:04;94870.25;;;20.46;70.95
21588;BME280;10956;48.878;13.316;2022-07-12T07:27:32;94878.94;;;20.51;70.78
21588;BME280;10956;48.878;13.316;2022-07-12T07:29:57;94873.75;;;20.55;71.05
21588;BME280;10956;48.878;13.316;2022-07-12T07:32:41;94869.94;;;20.39;72.22
21588;BME280;10956;48.878;13.316;2022-07-12T07:35:08;94861.81;;;20.21;72.04
21588;BME280;10956;48.878;13.316;2022-07-12T07:37:34;94866.63;;;20.02;72.22
21588;BME280;10956;48.878;13.316;2022-07-12T07:40:00;94873.47;;;19.86;72.51
21588;BME280;10956;48.878;13.316;2022-07-12T07:42:26;94875.31;;;19.77;72.53
21588;BME280;10956;48.878;13.316;2022-07-12T07:44:51;94873.84;;;19.71;72.30
21588;BME280;10956;48.878;13.316;2022-07-12T07:47:17;94874.94;;;19.70;71.02
21588;BME280;10956;48.878;13.316;2022-07-12T07:49:42;94877.50;;;19.75;70.74
21588;BME280;10956;48.878;13.316;2022-07-12T07:52:08;94881.19;;;19.87;70.47
21588;BME280;10956;48.878;13.316;2022-07-12T07:54:33;94879.25;;;20.10;69.24
21588;BME280;10956;48.878;13.316;2022-07-12T07:56:58;94875.38;;;20.25;68.09
21588;BME280;10956;48.878;13.316;2022-07-12T07:59:24;94871.75;;;20.29;67.87
21588;BME280;10956;48.878;13.316;2022-07-12T08:01:49;94878.44;;;20.41;68.20
21588;BME280;10956;48.878;13.316;2022-07-12T08:04:18;94871.53;;;20.57;67.42
21588;BME280;10956;48.878;13.316;2022-07-12T08:06:49;94874.09;;;20.79;66.58
21588;BME280;10956;48.878;13.316;2022-07-12T08:09:15;94869.41;;;21.11;65.78
21588;BME280;10956;48.878;13.316;2022-07-12T08:11:42;94867.84;;;21.44;64.61
21588;BME280;10956;48.878;13.316;2022-07-12T08:14:08;94879.47;;;21.66;64.03
21588;BME280;10956;48.878;13.316;2022-07-12T08:16:40;94871.72;;;21.81;63.52
21588;BME280;10956;48.878;13.316;2022-07-12T08:19:06;94868.97;;;22.07;63.50
21588;BME280;10956;48.878;13.316;2022-07-12T08:21:31;94873.34;;;22.20;59.17
21588;BME280;10956;48.878;13.316;2022-07-12T08:24:00;94865.47;;;22.15;60.22
21588;BME280;10956;48.878;13.316;2022-07-12T08:26:25;94868.81;;;22.12;60.00
21588;BME280;10956;48.878;13.316;2022-07-12T08:28:51;94872.63;;;21.94;61.14
21588;BME280;10956;48.878;13.316;2022-07-12T08:31:17;94874.72;;;21.80;61.98
21588;BME280;10956;48.878;13.316;2022-07-12T08:33:45;94875.19;;;21.73;61.53
21588;BME280;10956;48.878;13.316;2022-07-12T08:36:11;94881.22;;;21.70;60.36
21588;BME280;10956;48.878;13.316;2022-07-12T08:38:38;94883.28;;;21.65;59.90
21588;BME280;10956;48.878;13.316;2022-07-12T08:41:06;94886.75;;;21.56;60.05
21588;BME280;10956;48.878;13.316;2022-07-12T08:43:35;94879.50;;;21.48;59.18
21588;BME280;10956;48.878;13.316;2022-07-12T08:46:09;94881.72;;;21.46;59.60
21588;BME280;10956;48.878;13.316;2022-07-12T08:48:35;94882.03;;;21.53;59.46
21588;BME280;10956;48.878;13.316;2022-07-12T08:51:07;94877.06;;;21.81;59.10
21588;BME280;10956;48.878;13.316;2022-07-12T08:53:33;94885.25;;;22.02;58.41
21588;BME280;10956;48.878;13.316;2022-07-12T08:55:59;94878.72;;;22.20;58.21
21588;BME280;10956;48.878;13.316;2022-07-12T08:58:27;94873.00;;;22.31;57.71
21588;BME280;10956;48.878;13.316;2022-07-12T09:00:55;94875.50;;;22.36;57.88
21588;BME280;10956;48.878;13.316;2022-07-12T09:03:21;94880.28;;;22.21;58.06
21588;BME280;10956;48.878;13.316;2022-07-12T09:05:56;94876.56;;;22.05;57.78
21588;BME280;10956;48.878;13.316;2022-07-12T09:08:31;94875.59;;;22.01;57.09
21588;BME280;10956;48.878;13.316;2022-07-12T09:11:03;94874.03;;;22.00;56.94
21588;BME280;10956;48.878;13.316;2022-07-12T09:13:52;94872.91;;;22.01;57.50
21588;BME280;10956;48.878;13.316;2022-07-12T09:16:19;94869.94;;;21.94;57.68
21588;BME280;10956;48.878;13.316;2022-07-12T09:18:45;94876.72;;;21.91;58.52
21588;BME280;10956;48.878;13.316;2022-07-12T09:21:28;94885.59;;;21.83;58.57
21588;BME280;10956;48.878;13.316;2022-07-12T09:23:58;94886.41;;;21.67;57.46
21588;BME280;10956;48.878;13.316;2022-07-12T09:26:30;94890.56;;;21.38;57.04
21588;BME280;10956;48.878;13.316;2022-07-12T09:29:05;94887.25;;;21.33;56.27
21588;BME280;10956;48.878;13.316;2022-07-12T09:31:41;94879.84;;;21.38;56.25
21588;BME280;10956;48.878;13.316;2022-07-12T09:34:30;94880.09;;;21.80;56.54
21588;BME280;10956;48.878;13.316;2022-07-12T09:37:18;94874.47;;;22.19;56.48
21588;BME280;10956;48.878;13.316;2022-07-12T09:39:44;94880.63;;;22.20;57.37
21588;BME280;10956;48.878;13.316;2022-07-12T09:42:11;94877.59;;;22.21;57.83
21588;BME280;10956;48.878;13.316;2022-07-12T09:44:38;94880.31;;;22.13;57.42
21588;BME280;10956;48.878;13.316;2022-07-12T09:47:10;94885.66;;;22.21;57.46
21588;BME280;10956;48.878;13.316;2022-07-12T09:49:39;94888.34;;;22.21;56.57
21588;BME280;10956;48.878;13.316;2022-07-12T09:52:10;94886.59;;;22.26;56.56
21588;BME280;10956;48.878;13.316;2022-07-12T09:54:40;94883.50;;;22.06;56.92
21588;BME280;10956;48.878;13.316;2022-07-12T09:57:21;94892.53;;;21.84;57.53
21588;BME280;10956;48.878;13.316;2022-07-12T09:59:50;94891.16;;;21.70;57.85
21588;BME280;10956;48.878;13.316;2022-07-12T10:02:19;94880.13;;;21.63;58.23
21588;BME280;10956;48.878;13.316;2022-07-12T10:04:47;94883.56;;;21.72;57.92
21588;BME280;10956;48.878;13.316;2022-07-12T10:07:14;94880.81;;;21.98;57.71
21588;BME280;10956;48.878;13.316;2022-07-12T10:09:45;94880.16;;;22.18;57.35
21588;BME280;10956;48.878;13.316;2022-07-12T10:12:13;94875.84;;;22.26;56.26
21588;BME280;10956;48.878;13.316;2022-07-12T10:14:41;94873.56;;;22.45;56.06
21588;BME280;10956;48.878;13.316;2022-07-12T10:17:11;94880.34;;;22.42;56.16
21588;BME280;10956;48.878;13.316;2022-07-12T10:19:40;94886.69;;;22.38;55.38
21588;BME280;10956;48.878;13.316;2022-07-12T10:22:18;94876.78;;;22.30;56.39
21588;BME280;10956;48.878;13.316;2022-07-12T10:24:51;94891.84;;;22.13;57.44
21588;BME280;10956;48.878;13.316;2022-07-12T10:29:45;94878.69;;;21.74;56.74
21588;BME280;10956;48.878;13.316;2022-07-12T10:32:34;94868.06;;;21.86;57.20
21588;BME280;10956;48.878;13.316;2022-07-12T10:35:04;94878.59;;;22.00;57.66
21588;BME280;10956;48.878;13.316;2022-07-12T10:37:35;94879.91;;;21.85;58.23
21588;BME280;10956;48.878;13.316;2022-07-12T10:40:17;94871.44;;;21.57;59.73
21588;BME280;10956;48.878;13.316;2022-07-12T10:45:41;94866.41;;;21.21;62.53
21588;BME280;10956;48.878;13.316;2022-07-12T10:48:07;94868.16;;;21.34;62.84
21588;BME280;10956;48.878;13.316;2022-07-12T10:53:23;94878.34;;;21.75;59.41
21588;BME280;10956;48.878;13.316;2022-07-12T11:01:18;94882.97;;;21.57;57.36
21588;BME280;10956;48.878;13.316;2022-07-12T11:06:29;94872.25;;;21.40;57.30
21588;BME280;10956;48.878;13.316;2022-07-12T11:08:57;94882.84;;;21.28;57.45
21588;BME280;10956;48.878;13.316;2022-07-12T11:11:32;94885.16;;;21.21;57.45
21588;BME280;10956;48.878;13.316;2022-07-12T11:14:00;94879.19;;;21.07;57.27
21588;BME280;10956;48.878;13.316;2022-07-12T11:16:27;94886.28;;;21.11;57.70
21588;BME280;10956;48.878;13.316;2022-07-12T11:18:55;94872.09;;;21.45;56.01
21588;BME280;10956;48.878;13.316;2022-07-12T11:21:22;94870.88;;;21.98;55.66
21588;BME280;10956;48.878;13.316;2022-07-12T11:23:52;94869.56;;;22.51;55.86
21588;BME280;10956;48.878;13.316;2022-07-12T11:26:18;94864.56;;;22.70;54.36
21588;BME280;10956;48.878;13.316;2022-07-12T11:28:46;94859.50;;;22.69;55.07
21588;BME280;10956;48.878;13.316;2022-07-12T11:31:15;94860.31;;;22.69;55.18
21588;BME280;10956;48.878;13.316;2022-07-12T11:33:44;94858.31;;;22.58;55.57
21588;BME280;10956;48.878;13.316;2022-07-12T11:36:11;94856.22;;;22.63;55.71
21588;BME280;10956;48.878;13.316;2022-07-12T11:38:39;94860.53;;;22.85;56.45
21588;BME280;10956;48.878;13.316;2022-07-12T11:41:06;94871.97;;;23.03;54.71
21588;BME280;10956;48.878;13.316;2022-07-12T11:43:33;94863.44;;;23.01;53.56
21588;BME280;10956;48.878;13.316;2022-07-12T11:46:00;94865.59;;;22.86;50.07
21588;BME280;10956;48.878;13.316;2022-07-12T11:48:27;94865.22;;;22.67;49.95
21588;BME280;10956;48.878;13.316;2022-07-12T11:51:00;94866.50;;;22.61;49.76
21588;BME280;10956;48.878;13.316;2022-07-12T11:53:26;94870.59;;;22.67;50.37
21588;BME280;10956;48.878;13.316;2022-07-12T11:55:57;94858.53;;;22.73;50.75
21588;BME280;10956;48.878;13.316;2022-07-12T11:58:24;94871.03;;;22.99;50.70
21588;BME280;10956;48.878;13.316;2022-07-12T12:00:51;94871.09;;;23.11;50.14
21588;BME280;10956;48.878;13.316;2022-07-12T12:03:19;94865.47;;;23.04;49.14
21588;BME280;10956;48.878;13.316;2022-07-12T12:05:49;94864.16;;;23.10;49.88
21588;BME280;10956;48.878;13.316;2022-07-12T12:08:15;94867.91;;;22.97;50.17
21588;BME280;10956;48.878;13.316;2022-07-12T12:10:42;94868.41;;;23.11;50.79
21588;BME280;10956;48.878;13.316;2022-07-12T12:13:15;94870.78;;;23.33;50.91
21588;BME280;10956;48.878;13.316;2022-07-12T12:15:48;94839.53;;;23.62;51.08
21588;BME280;10956;48.878;13.316;2022-07-12T12:18:15;94861.75;;;23.71;52.18
21588;BME280;10956;48.878;13.316;2022-07-12T12:20:41;94856.56;;;23.66;51.99
21588;BME280;10956;48.878;13.316;2022-07-12T12:23:19;94851.41;;;23.61;50.92
21588;BME280;10956;48.878;13.316;2022-07-12T12:25:45;94847.59;;;23.62;52.91
21588;BME280;10956;48.878;13.316;2022-07-12T12:28:12;94854.34;;;23.47;53.37
21588;BME280;10956;48.878;13.316;2022-07-12T12:30:55;94848.63;;;23.15;52.29
21588;BME280;10956;48.878;13.316;2022-07-12T12:33:41;94845.88;;;23.03;52.78
21588;BME280;10956;48.878;13.316;2022-07-12T12:36:26;94852.03;;;23.04;53.55
21588;BME280;10956;48.878;13.316;2022-07-12T12:38:57;94854.91;;;22.99;54.25
21588;BME280;10956;48.878;13.316;2022-07-12T12:41:25;94867.63;;;22.90;53.54
21588;BME280;10956;48.878;13.316;2022-07-12T12:44:02;94859.09;;;22.87;52.71
21588;BME280;10956;48.878;13.316;2022-07-12T12:49:08;94868.94;;;23.04;53.37
21588;BME280;10956;48.878;13.316;2022-07-12T12:51:50;94868.63;;;22.76;52.31
21588;BME280;10956;48.878;13.316;2022-07-12T12:54:33;94873.38;;;22.79;51.60
21588;BME280;10956;48.878;13.316;2022-07-12T12:56:59;94868.34;;;22.99;51.87
21588;BME280;10956;48.878;13.316;2022-07-12T12:59:24;94868.03;;;23.21;52.62
21588;BME280;10956;48.878;13.316;2022-07-12T13:01:49;94870.69;;;23.42;51.96
21588;BME280;10956;48.878;13.316;2022-07-12T13:04:15;94888.06;;;23.44;51.79
21588;BME280;10956;48.878;13.316;2022-07-12T13:06:40;94887.22;;;23.52;50.08
21588;BME280;10956;48.878;13.316;2022-07-12T13:09:06;94883.69;;;23.40;49.65